Dallardsville, Texas
Current Conditions -  °F | °C
As of 8:15 AM on Saturday 25 Oct 2014 (Local Time) from KJAS Reporting Station
Clear Clear  
Wind Chill: 49°   Ceiling: Unl
Heat Index: 49°   Visibility: 10mi
Dew Point: 48°   Wind: 0mph
Humidity: 98%   Direction: NA
Pressure: 30.19"   Gusts: NA
Location:  30.63°N, 94.63°W
Report Text: KJAS 251315Z AUTO 00000KT 10SM CLR 09/09 A3019 RMK AO2 T00920089
Loading
Personal Weather Stations






























Interactive Weather Map
Tropical Storm Tracking
New forecast layout! Learn more

10-Day Weather Forecast

Advertisements
Track Severe Weather on mobile